createdAt,value
2022-11-28T00:01:34.399Z,7.10
2022-11-28T00:04:03.881Z,6.30
2022-11-28T00:06:37.687Z,6.60
2022-11-28T00:09:07.934Z,5.67
2022-11-28T00:11:39.155Z,6.53
2022-11-28T00:14:13.667Z,5.57
2022-11-28T00:16:43.427Z,5.73
2022-11-28T00:19:40.858Z,5.63
2022-11-28T00:22:12.371Z,5.43
2022-11-28T00:24:44.650Z,5.37
2022-11-28T00:27:30.837Z,5.57
2022-11-28T00:33:29.490Z,5.73
2022-11-28T00:36:00.781Z,5.03
2022-11-28T00:38:31.782Z,6.03
2022-11-28T00:41:01.829Z,5.83
2022-11-28T00:43:31.168Z,4.37
2022-11-28T00:46:00.556Z,4.93
2022-11-28T00:48:29.738Z,4.87
2022-11-28T00:51:08.104Z,4.67
2022-11-28T00:53:40.741Z,5.20
2022-11-28T00:56:13.644Z,5.23
2022-11-28T00:58:43.869Z,4.80
2022-11-28T01:01:16.062Z,5.00
2022-11-28T01:03:45.745Z,4.33
2022-11-28T01:06:21.464Z,4.63
2022-11-28T01:08:52.130Z,4.40
2022-11-28T01:11:22.442Z,5.20
2022-11-28T01:13:51.673Z,5.10
2022-11-28T01:16:20.502Z,5.37
2022-11-28T01:18:49.365Z,4.47
2022-11-28T01:21:20.297Z,5.20
2022-11-28T01:23:49.522Z,4.80
2022-11-28T01:26:22.237Z,4.67
2022-11-28T01:28:51.422Z,4.93
2022-11-28T01:31:22.319Z,4.70
2022-11-28T01:33:51.766Z,4.63
2022-11-28T01:36:22.281Z,4.50
2022-11-28T01:38:52.729Z,4.30
2022-11-28T01:41:25.506Z,4.90
2022-11-28T01:44:03.750Z,4.53
2022-11-28T01:46:34.829Z,4.53
2022-11-28T01:49:12.617Z,4.50
2022-11-28T01:51:49.955Z,4.77
2022-11-28T01:54:30.723Z,4.37
2022-11-28T01:57:04.147Z,4.23
2022-11-28T01:59:37.898Z,4.60
2022-11-28T02:02:11.726Z,4.33
2022-11-28T02:04:41.623Z,4.07
2022-11-28T02:07:11.886Z,4.10
2022-11-28T02:09:41.208Z,4.40
2022-11-28T02:12:53.651Z,4.50
2022-11-28T02:16:03.696Z,4.57
2022-11-28T03:51:00.331Z,4.07
2022-11-28T03:53:39.557Z,4.50
2022-11-28T05:06:27.573Z,3.65
2022-11-28T05:25:53.602Z,3.70
2022-11-28T05:31:34.926Z,4.60
2022-11-28T05:34:04.005Z,4.47
2022-11-28T05:36:33.289Z,4.30
2022-11-28T05:39:18.267Z,4.07
2022-11-28T05:44:56.646Z,5.00
2022-11-28T05:47:26.188Z,4.30
2022-11-28T05:49:55.060Z,4.60
2022-11-28T05:58:21.164Z,4.50
2022-11-28T06:00:55.817Z,4.77
2022-11-28T06:03:24.390Z,4.50
2022-11-28T06:05:53.033Z,4.10
2022-11-28T06:08:21.521Z,3.87
2022-11-28T06:10:58.514Z,4.30
2022-11-28T06:13:28.044Z,5.20
2022-11-28T06:15:57.975Z,4.50
2022-11-28T06:18:26.564Z,4.40
2022-11-28T06:20:55.390Z,4.00
2022-11-28T06:23:24.368Z,4.43
2022-11-28T06:25:55.672Z,4.97
2022-11-28T06:28:24.265Z,4.90
2022-11-28T06:30:57.061Z,4.50
2022-11-28T06:33:25.696Z,3.67
2022-11-28T06:35:59.868Z,3.73
2022-11-28T06:38:28.505Z,4.30
2022-11-28T06:40:58.887Z,4.17
2022-11-28T06:43:27.875Z,3.67
2022-11-28T22:30:24.124Z,5.57
2022-11-28T22:32:53.156Z,6.07
2022-11-28T22:35:22.694Z,5.90
2022-11-28T22:37:53.928Z,5.57
2022-11-28T22:40:22.580Z,5.33
2022-11-28T22:42:55.459Z,5.50
2022-11-28T22:45:25.709Z,5.80
2022-11-28T22:47:54.343Z,5.40
2022-11-28T22:50:23.727Z,5.33
2022-11-28T22:52:54.393Z,6.00
2022-11-28T22:55:26.279Z,6.23
2022-11-28T22:57:55.064Z,5.87
2022-11-28T23:00:25.549Z,6.40
2022-11-28T23:02:54.339Z,5.63
2022-11-28T23:05:23.352Z,6.03
2022-11-28T23:07:52.049Z,6.30
2022-11-28T23:10:20.777Z,6.17
2022-11-28T23:12:49.838Z,6.90
2022-11-28T23:15:19.263Z,6.30
2022-11-28T23:17:49.532Z,6.33
2022-11-28T23:20:22.678Z,6.23
2022-11-28T23:22:52.393Z,6.50
2022-11-28T23:25:21.546Z,6.70
2022-11-28T23:27:52.046Z,6.63
2022-11-28T23:30:20.934Z,9.00
2022-11-28T23:32:51.575Z,8.40
2022-11-28T23:35:20.285Z,8.07
2022-11-28T23:37:49.165Z,13.50
2022-11-28T23:40:17.972Z,10.87
2022-11-28T23:42:47.072Z,10.73
2022-11-28T23:45:15.834Z,9.03
2022-11-28T23:47:44.505Z,7.40
2022-11-28T23:50:14.749Z,7.33
2022-11-28T23:52:43.387Z,6.60
2022-11-28T23:55:12.131Z,6.00
